Fair Bluff, North Carolina
Current Conditions -  °F | °C
As of 7:15 PM on Monday 24 Nov 2014 (Local Time) from KCPC Reporting Station
Overcast Overcast  
Wind Chill: 66°   Ceiling: 7000
Heat Index: 66°   Visibility: 10mi
Dew Point: 64°   Wind: 7mph
Humidity: 94%   Direction: 210°SSW
Pressure: 29.94"   Gusts: NA
Location:  34.31°N, 79.04°W
Report Text: KCPC 250015Z AUTO 21006KT 10SM SCT050 OVC070 19/18 A2994 RMK AO2
Loading
Personal Weather Stations






























Interactive Weather Map New forecast layout! Learn more

10-Day Weather Forecast

Advertisements
Track Severe Weather on mobile